createdAt,value
2023-05-20T00:02:09.805Z,4.00
2023-05-20T00:04:36.652Z,4.90
2023-05-20T00:07:04.057Z,4.27
2023-05-20T00:09:30.783Z,3.70
2023-05-20T00:11:57.614Z,4.20
2023-05-20T00:14:24.493Z,4.37
2023-05-20T00:16:51.351Z,3.70
2023-05-20T00:19:18.258Z,5.20
2023-05-20T00:21:44.982Z,4.40
2023-05-20T00:24:11.713Z,4.30
2023-05-20T00:26:38.624Z,4.70
2023-05-20T00:29:05.374Z,3.63
2023-05-20T00:31:32.235Z,4.37
2023-05-20T00:33:59.049Z,5.30
2023-05-20T00:36:25.905Z,4.83
2023-05-20T00:38:52.695Z,4.33
2023-05-20T00:41:19.421Z,5.00
2023-05-20T00:43:46.407Z,4.20
2023-05-20T00:46:13.489Z,4.40
2023-05-20T00:48:42.885Z,3.90
2023-05-20T00:51:11.739Z,4.43
2023-05-20T00:53:39.256Z,4.40
2023-05-20T00:56:07.224Z,4.07
2023-05-20T00:58:36.694Z,4.23
2023-05-20T01:01:03.680Z,4.33
2023-05-20T01:03:30.673Z,4.33
2023-05-20T01:05:57.487Z,5.77
2023-05-20T01:08:25.968Z,4.10
2023-05-20T01:11:01.189Z,4.07
2023-05-20T01:13:34.300Z,3.93
2023-05-20T01:16:03.324Z,4.27
2023-05-20T01:18:32.444Z,4.30
2023-05-20T01:21:02.543Z,4.57
2023-05-20T01:23:42.646Z,4.37
2023-05-20T01:26:13.836Z,4.73
2023-05-20T01:28:43.541Z,4.70
2023-05-20T01:31:32.026Z,4.60
2023-05-20T01:33:59.549Z,4.43
2023-05-20T01:36:28.492Z,4.60
2023-05-20T01:38:56.214Z,5.10
2023-05-20T01:41:25.105Z,4.27
2023-05-20T01:43:52.085Z,5.47
2023-05-20T01:46:18.851Z,4.57
2023-05-20T01:48:45.986Z,4.50
2023-05-20T01:51:12.852Z,5.27
2023-05-20T01:53:39.566Z,4.30
2023-05-20T01:56:06.610Z,5.43
2023-05-20T01:58:33.532Z,4.80
2023-05-20T02:01:00.362Z,5.30
2023-05-20T02:03:27.221Z,5.10
2023-05-20T02:05:54.039Z,5.30
2023-05-20T02:08:20.887Z,4.97
2023-05-20T02:10:50.416Z,4.87
2023-05-20T02:13:17.217Z,5.17
2023-05-20T02:15:44.817Z,4.70
2023-05-20T02:18:12.683Z,5.33
2023-05-20T02:20:39.745Z,5.00
2023-05-20T02:23:06.638Z,5.40
2023-05-20T02:25:34.380Z,5.43
2023-05-20T02:28:01.572Z,5.43
2023-05-20T02:30:28.360Z,5.10
2023-05-20T02:32:55.132Z,5.23
2023-05-20T02:35:21.843Z,5.20
2023-05-20T02:37:48.704Z,4.53
2023-05-20T02:40:15.503Z,4.80
2023-05-20T02:42:42.360Z,5.40
2023-05-20T02:45:09.545Z,4.80
2023-05-20T02:47:36.310Z,5.40
2023-05-20T02:50:03.320Z,4.47
2023-05-20T02:52:30.043Z,4.40
2023-05-20T02:54:56.891Z,5.00
2023-05-20T02:57:23.711Z,5.30
2023-05-20T02:59:50.474Z,6.93
2023-05-20T03:02:17.400Z,5.13
2023-05-20T03:04:46.940Z,4.70
2023-05-20T03:07:14.735Z,4.43
2023-05-20T03:09:42.088Z,5.77
2023-05-20T03:12:08.783Z,5.73
2023-05-20T03:14:35.501Z,5.20
2023-05-20T03:17:02.351Z,6.00
2023-05-20T03:19:29.274Z,5.00
2023-05-20T03:21:56.041Z,5.47
2023-05-20T03:24:23.607Z,4.80
2023-05-20T03:26:50.444Z,5.60
2023-05-20T03:29:17.984Z,5.43
2023-05-20T03:31:45.151Z,5.30
2023-05-20T03:34:12.046Z,5.33
2023-05-20T03:36:39.008Z,6.60
2023-05-20T03:39:05.796Z,6.40
2023-05-20T03:41:33.204Z,5.03
2023-05-20T03:43:59.974Z,5.20
2023-05-20T03:46:26.713Z,5.53
2023-05-20T03:48:53.577Z,5.50
2023-05-20T03:51:20.325Z,5.87
2023-05-20T03:53:47.072Z,6.20
2023-05-20T03:56:13.957Z,5.30
2023-05-20T03:58:40.885Z,6.27
2023-05-20T04:01:07.713Z,5.10
2023-05-20T04:03:34.610Z,5.53
2023-05-20T04:06:01.436Z,6.07
2023-05-20T04:08:28.139Z,6.07
2023-05-20T04:10:58.238Z,5.70
2023-05-20T04:13:25.779Z,5.27
2023-05-20T04:15:53.146Z,6.60
2023-05-20T04:18:20.042Z,5.83
2023-05-20T04:20:47.332Z,6.33
2023-05-20T04:23:14.092Z,5.40
2023-05-20T04:25:42.194Z,5.00
2023-05-20T04:28:10.635Z,6.60
2023-05-20T04:30:37.512Z,5.93
2023-05-20T04:33:06.279Z,6.20
2023-05-20T04:35:35.230Z,5.87
2023-05-20T04:38:02.251Z,6.50
2023-05-20T04:40:29.067Z,7.13
2023-05-20T04:42:58.520Z,6.17
2023-05-20T04:45:26.561Z,5.70
2023-05-20T04:47:53.434Z,6.40
2023-05-20T04:50:21.323Z,6.37
2023-05-20T04:52:48.059Z,6.13
2023-05-20T04:55:16.126Z,6.57
2023-05-20T04:57:43.603Z,6.37
2023-05-20T05:00:12.286Z,5.80
2023-05-20T05:02:39.619Z,6.03
2023-05-20T05:05:07.077Z,6.67
2023-05-20T05:07:33.997Z,6.60
2023-05-20T05:10:01.245Z,6.47
2023-05-20T05:12:28.152Z,7.07
2023-05-20T05:14:54.934Z,5.70
2023-05-20T05:17:21.729Z,6.60
2023-05-20T05:19:48.585Z,6.57
2023-05-20T05:22:15.376Z,6.77
2023-05-20T05:24:42.148Z,5.33
2023-05-20T05:27:08.866Z,6.40
2023-05-20T05:29:35.658Z,6.57
2023-05-20T05:32:02.445Z,7.73
2023-05-20T05:34:29.255Z,7.30
2023-05-20T05:36:56.146Z,6.60
2023-05-20T05:39:22.956Z,6.43
2023-05-20T05:41:49.674Z,7.33
2023-05-20T05:44:16.496Z,7.00
2023-05-20T05:46:43.253Z,6.20
2023-05-20T05:49:10.052Z,6.40
2023-05-20T05:51:38.980Z,7.17
2023-05-20T05:54:06.057Z,7.10
2023-05-20T05:56:32.831Z,6.53
2023-05-20T05:58:59.691Z,7.40
2023-05-20T06:01:26.519Z,7.00
2023-05-20T06:03:53.773Z,7.67
2023-05-20T06:06:20.791Z,7.30
2023-05-20T06:08:47.747Z,7.27
2023-05-20T06:11:14.549Z,6.90
2023-05-20T06:13:41.358Z,6.03
2023-05-20T06:16:08.172Z,7.50
2023-05-20T06:18:34.973Z,7.40
2023-05-20T06:21:02.806Z,7.30
2023-05-20T06:23:29.573Z,7.40
2023-05-20T06:25:59.972Z,6.83
2023-05-20T06:28:27.544Z,7.30
2023-05-20T06:30:55.053Z,7.20
2023-05-20T06:33:26.067Z,6.57
2023-05-20T06:35:53.844Z,7.87
2023-05-20T06:38:20.816Z,8.90
2023-05-20T06:40:51.542Z,7.20
2023-05-20T06:43:18.586Z,7.63
2023-05-20T06:45:45.522Z,7.50
2023-05-20T06:48:12.406Z,8.27
2023-05-20T06:50:39.214Z,8.37
2023-05-20T06:53:06.042Z,7.23
2023-05-20T06:55:33.213Z,7.57
2023-05-20T06:58:00.195Z,7.30
2023-05-20T07:00:26.990Z,7.23
2023-05-20T07:02:53.787Z,8.10
2023-05-20T07:05:20.720Z,7.30
2023-05-20T07:07:47.507Z,7.50
2023-05-20T07:10:14.209Z,7.63
2023-05-20T07:12:40.953Z,8.27
2023-05-20T07:15:08.704Z,7.73
2023-05-20T07:17:35.814Z,8.27
2023-05-20T07:20:04.191Z,8.33
2023-05-20T07:22:31.200Z,7.60
2023-05-20T07:24:59.374Z,7.57
2023-05-20T07:27:26.090Z,7.60
2023-05-20T07:29:52.920Z,7.40
2023-05-20T07:32:19.679Z,6.73
2023-05-20T07:34:46.460Z,7.67
2023-05-20T07:37:13.261Z,7.70
2023-05-20T07:39:40.192Z,7.43
2023-05-20T07:42:07.030Z,7.77
2023-05-20T07:44:33.830Z,6.93
2023-05-20T07:47:01.015Z,7.70
2023-05-20T07:49:27.778Z,6.80
2023-05-20T07:51:54.645Z,6.40
2023-05-20T07:54:21.387Z,6.10
2023-05-20T07:56:48.139Z,6.33
2023-05-20T07:59:15.083Z,6.83
2023-05-20T08:01:42.711Z,5.87
2023-05-20T08:04:09.678Z,5.63
2023-05-20T08:06:36.859Z,7.07
2023-05-20T08:09:03.991Z,6.33
2023-05-20T08:11:30.824Z,6.60
2023-05-20T08:13:57.649Z,6.00
2023-05-20T08:16:24.589Z,5.87
2023-05-20T08:18:51.525Z,7.17
2023-05-20T08:21:18.274Z,6.33
2023-05-20T08:23:45.145Z,6.73
2023-05-20T08:26:12.038Z,6.07
2023-05-20T08:28:39.046Z,6.50
2023-05-20T08:31:05.962Z,5.40
2023-05-20T08:33:32.784Z,5.93
2023-05-20T08:35:59.512Z,5.83
2023-05-20T08:38:26.288Z,6.40
2023-05-20T08:40:55.382Z,7.47
2023-05-20T08:43:23.430Z,5.90
2023-05-20T08:45:52.517Z,6.60
2023-05-20T08:48:20.654Z,7.40
2023-05-20T08:50:51.272Z,7.10
2023-05-20T08:53:19.515Z,6.60
2023-05-20T08:56:00.789Z,6.40
2023-05-20T08:58:32.565Z,6.70
2023-05-20T09:00:59.396Z,6.43
2023-05-20T09:03:26.186Z,6.37
2023-05-20T09:05:53.856Z,6.10
2023-05-20T09:08:28.346Z,7.10
2023-05-20T09:10:55.194Z,6.67
2023-05-20T09:13:23.894Z,7.83
2023-05-20T09:15:51.062Z,6.20
2023-05-20T09:18:17.975Z,6.93
2023-05-20T09:20:47.262Z,6.80
2023-05-20T09:23:14.025Z,6.60
2023-05-20T09:25:40.974Z,7.30
2023-05-20T09:28:09.202Z,8.13
2023-05-20T09:30:36.132Z,8.17
2023-05-20T09:33:05.295Z,7.63
2023-05-20T09:35:37.054Z,7.40
2023-05-20T09:38:05.942Z,7.17
2023-05-20T09:40:33.692Z,7.70
2023-05-20T09:43:03.721Z,6.77
2023-05-20T09:45:31.088Z,7.40
2023-05-20T09:47:58.196Z,8.33
2023-05-20T09:50:26.091Z,9.17
2023-05-20T09:52:54.086Z,9.10
2023-05-20T09:55:22.592Z,9.30
2023-05-20T09:57:49.913Z,8.80
2023-05-20T10:00:17.689Z,9.30
2023-05-20T10:02:53.921Z,9.47
2023-05-20T10:05:24.538Z,9.43
2023-05-20T10:07:54.261Z,11.10
2023-05-20T10:10:35.896Z,9.73
2023-05-20T10:13:24.450Z,10.03
2023-05-20T10:15:54.221Z,10.00
2023-05-20T10:18:33.851Z,10.17
2023-05-20T10:21:01.245Z,10.00
2023-05-20T10:23:29.712Z,9.13
2023-05-20T10:25:57.509Z,9.93
2023-05-20T10:28:32.914Z,9.60
2023-05-20T10:31:00.899Z,9.83
2023-05-20T10:33:28.796Z,8.83
2023-05-20T10:35:59.628Z,9.50
2023-05-20T10:38:26.594Z,9.20
2023-05-20T10:40:53.653Z,9.27
2023-05-20T10:43:30.583Z,8.97
2023-05-20T10:45:58.551Z,9.53
2023-05-20T10:48:26.763Z,8.93
2023-05-20T10:50:59.727Z,8.80
2023-05-20T10:53:34.013Z,9.03
2023-05-20T10:56:01.523Z,8.23
2023-05-20T10:58:28.328Z,8.63
2023-05-20T11:00:56.280Z,9.40
2023-05-20T11:03:24.090Z,8.80
2023-05-20T11:05:51.676Z,9.17
2023-05-20T11:08:28.286Z,8.80
2023-05-20T11:10:57.391Z,9.53
2023-05-20T11:13:25.019Z,10.13
2023-05-20T11:15:51.929Z,9.03
2023-05-20T11:18:19.037Z,10.07
2023-05-20T11:20:47.367Z,9.90
2023-05-20T11:23:15.588Z,9.07
2023-05-20T11:25:42.496Z,10.03
2023-05-20T11:28:16.414Z,9.17
2023-05-20T11:30:43.797Z,9.90
2023-05-20T11:33:13.024Z,10.00
2023-05-20T11:35:54.347Z,9.37
2023-05-20T11:38:21.878Z,9.70
2023-05-20T11:40:56.279Z,9.50
2023-05-20T11:43:24.010Z,9.23
2023-05-20T11:45:56.087Z,10.50
2023-05-20T11:48:24.161Z,9.47
2023-05-20T11:50:52.858Z,8.30
2023-05-20T11:53:21.161Z,10.07
2023-05-20T11:55:58.569Z,8.87
2023-05-20T11:58:27.740Z,8.90
2023-05-20T12:01:01.788Z,9.20
2023-05-20T12:03:33.080Z,8.67
2023-05-20T12:06:02.833Z,9.37
2023-05-20T12:08:30.041Z,9.13
2023-05-20T12:10:56.995Z,9.00
2023-05-20T12:13:23.851Z,9.37
2023-05-20T12:15:50.727Z,9.60
2023-05-20T12:18:17.514Z,9.17
2023-05-20T12:20:44.235Z,10.03
2023-05-20T12:23:11.149Z,9.70
2023-05-20T12:25:37.871Z,10.50
2023-05-20T12:28:04.787Z,9.67
2023-05-20T12:30:31.643Z,10.00
2023-05-20T12:32:58.475Z,8.80
2023-05-20T12:35:36.657Z,8.97
2023-05-20T12:38:03.554Z,9.80
2023-05-20T12:40:30.328Z,9.50
2023-05-20T12:42:57.406Z,8.60
2023-05-20T12:45:24.144Z,9.53
2023-05-20T12:47:51.371Z,9.60
2023-05-20T12:50:18.308Z,9.50
2023-05-20T12:52:45.313Z,9.50
2023-05-20T12:55:15.579Z,9.93
2023-05-20T12:57:44.264Z,10.47
2023-05-20T13:00:11.914Z,10.10
2023-05-20T13:02:40.070Z,8.13
2023-05-20T13:05:07.448Z,8.83
2023-05-20T13:07:34.439Z,10.10
2023-05-20T13:10:01.511Z,9.70
2023-05-20T13:12:28.300Z,9.97
2023-05-20T13:14:55.095Z,8.90
2023-05-20T13:17:21.890Z,8.73
2023-05-20T13:19:48.839Z,8.50
2023-05-20T13:22:15.802Z,9.10
2023-05-20T13:24:42.568Z,9.53
2023-05-20T13:27:09.424Z,9.47
2023-05-20T13:29:36.177Z,7.73
2023-05-20T13:32:03.968Z,8.73
2023-05-20T13:34:31.590Z,8.70
2023-05-20T13:36:58.416Z,9.20
2023-05-20T13:39:25.330Z,9.63
2023-05-20T13:41:53.502Z,8.63
2023-05-20T13:44:20.768Z,9.50
2023-05-20T13:46:47.604Z,9.33
2023-05-20T13:49:14.492Z,8.77
2023-05-20T13:51:41.272Z,8.90
2023-05-20T13:54:08.003Z,9.30
2023-05-20T13:56:34.814Z,9.10
2023-05-20T13:59:01.581Z,7.97
2023-05-20T14:01:30.546Z,8.30
2023-05-20T14:03:57.403Z,8.43
2023-05-20T14:06:24.812Z,8.30
2023-05-20T14:08:54.505Z,8.93
2023-05-20T14:11:21.815Z,8.37
2023-05-20T14:13:48.625Z,8.17
2023-05-20T14:16:15.744Z,7.67
2023-05-20T14:18:42.632Z,9.10
2023-05-20T14:21:09.490Z,8.17
2023-05-20T14:23:36.218Z,7.97
2023-05-20T14:26:03.197Z,7.90
2023-05-20T14:28:29.975Z,8.17
2023-05-20T14:30:56.683Z,8.00
2023-05-20T14:33:23.435Z,8.73
2023-05-20T14:35:50.162Z,8.80
2023-05-20T14:38:18.128Z,9.13
2023-05-20T14:40:44.868Z,8.37
2023-05-20T14:43:11.722Z,8.07
2023-05-20T14:45:38.524Z,9.43
2023-05-20T14:48:06.849Z,8.93
2023-05-20T14:50:33.855Z,8.37
2023-05-20T14:53:00.693Z,8.20
2023-05-20T14:55:27.483Z,7.83
2023-05-20T14:57:54.326Z,8.50
2023-05-20T15:00:21.081Z,8.00
2023-05-20T15:02:48.028Z,7.73
2023-05-20T15:05:14.937Z,7.63
2023-05-20T15:07:41.750Z,7.87
2023-05-20T15:10:08.902Z,7.90
2023-05-20T15:12:35.693Z,8.37
2023-05-20T15:15:03.061Z,7.97
2023-05-20T15:17:29.835Z,8.50
2023-05-20T15:19:56.701Z,7.50
2023-05-20T15:22:23.459Z,7.87
2023-05-20T15:24:50.303Z,7.40
2023-05-20T15:27:17.152Z,7.90
2023-05-20T15:29:44.070Z,7.80
2023-05-20T15:32:11.205Z,7.57
2023-05-20T15:34:38.013Z,7.90
2023-05-20T15:37:04.986Z,6.93
2023-05-20T15:39:31.827Z,6.73
2023-05-20T15:42:02.861Z,8.53
2023-05-20T15:44:29.762Z,8.43
2023-05-20T15:46:56.681Z,7.50
2023-05-20T15:49:23.470Z,7.53
2023-05-20T15:52:02.376Z,8.20
2023-05-20T15:54:30.968Z,6.87
2023-05-20T15:56:58.112Z,8.60
2023-05-20T15:59:25.045Z,9.80
2023-05-20T16:01:51.834Z,9.37
2023-05-20T16:04:19.638Z,9.90
2023-05-20T16:06:47.155Z,9.70
2023-05-20T16:09:14.039Z,9.50
2023-05-20T16:11:41.043Z,9.33
2023-05-20T16:14:07.858Z,8.93
2023-05-20T16:16:36.162Z,7.50
2023-05-20T16:19:03.364Z,6.30
2023-05-20T16:21:31.271Z,7.00
2023-05-20T16:23:58.064Z,7.10
2023-05-20T16:26:25.058Z,7.27
2023-05-20T16:28:51.794Z,10.53
2023-05-20T16:31:18.726Z,7.00
2023-05-20T16:33:45.603Z,7.17
2023-05-20T16:36:12.409Z,7.60
2023-05-20T16:38:39.536Z,8.13
2023-05-20T16:41:06.628Z,8.47
2023-05-20T16:43:33.370Z,7.40
2023-05-20T16:46:00.694Z,7.00
2023-05-20T16:48:27.529Z,6.90
2023-05-20T16:50:54.251Z,7.50
2023-05-20T16:53:21.459Z,6.53
2023-05-20T16:55:48.184Z,7.30
2023-05-20T16:58:15.037Z,7.17
2023-05-20T17:00:41.783Z,7.17
2023-05-20T17:03:08.703Z,6.70
2023-05-20T17:05:35.587Z,7.87
2023-05-20T17:08:02.307Z,7.47
2023-05-20T17:10:29.594Z,7.10
2023-05-20T17:12:56.542Z,7.70
2023-05-20T17:15:23.638Z,7.60
2023-05-20T17:17:50.770Z,8.20
2023-05-20T17:20:17.743Z,6.63
2023-05-20T17:22:44.655Z,8.10
2023-05-20T17:25:11.538Z,7.77
2023-05-20T17:27:38.335Z,7.90
2023-05-20T17:30:05.702Z,7.50
2023-05-20T17:32:32.592Z,7.57
2023-05-20T17:34:59.344Z,8.50
2023-05-20T17:37:26.111Z,7.23
2023-05-20T17:39:52.931Z,8.70
2023-05-20T17:42:19.698Z,9.00
2023-05-20T17:44:46.547Z,8.60
2023-05-20T17:47:13.429Z,8.80
2023-05-20T17:49:40.507Z,7.50
2023-05-20T17:52:07.599Z,8.43
2023-05-20T17:54:34.362Z,8.40
2023-05-20T17:57:01.103Z,8.73
2023-05-20T17:59:27.842Z,8.40
2023-05-20T18:01:54.737Z,8.20
2023-05-20T18:04:21.895Z,8.37
2023-05-20T18:06:48.640Z,9.03
2023-05-20T18:09:15.462Z,8.97
2023-05-20T18:11:42.313Z,9.30
2023-05-20T18:14:09.850Z,8.60
2023-05-20T18:16:36.757Z,7.70
2023-05-20T18:19:03.682Z,8.57
2023-05-20T18:21:30.463Z,8.10
2023-05-20T18:23:57.307Z,8.30
2023-05-20T18:26:24.061Z,7.53
2023-05-20T18:28:50.986Z,9.70
2023-05-20T18:31:17.796Z,8.40
2023-05-20T18:33:44.583Z,7.40
2023-05-20T18:36:11.530Z,7.93
2023-05-20T18:38:40.637Z,8.80
2023-05-20T18:41:08.525Z,8.30
2023-05-20T18:43:35.642Z,8.07
2023-05-20T18:46:02.444Z,7.80
2023-05-20T18:48:29.411Z,7.37
2023-05-20T18:50:56.655Z,7.40
2023-05-20T18:53:23.685Z,9.30
2023-05-20T18:55:51.095Z,10.20
2023-05-20T18:58:17.856Z,9.00
2023-05-20T19:00:44.644Z,11.30
2023-05-20T19:03:11.604Z,11.53
2023-05-20T19:05:39.017Z,11.37
2023-05-20T19:08:06.428Z,9.40
2023-05-20T19:10:33.627Z,9.50
2023-05-20T19:13:00.481Z,8.83
2023-05-20T19:15:27.335Z,8.03
2023-05-20T19:17:54.359Z,6.90
2023-05-20T19:20:21.299Z,6.67
2023-05-20T19:22:48.068Z,6.43
2023-05-20T19:25:14.957Z,8.00
2023-05-20T19:27:41.687Z,8.27
2023-05-20T19:30:10.937Z,7.07
2023-05-20T19:32:38.817Z,7.40
2023-05-20T19:35:06.348Z,7.57
2023-05-20T19:37:33.636Z,7.60
2023-05-20T19:40:01.178Z,8.13
2023-05-20T19:42:28.084Z,7.13
2023-05-20T19:44:54.981Z,7.80
2023-05-20T19:47:22.092Z,8.60
2023-05-20T19:49:48.984Z,7.80
2023-05-20T19:52:15.824Z,8.10
2023-05-20T19:54:42.785Z,8.60
2023-05-20T19:57:10.018Z,7.93
2023-05-20T19:59:37.958Z,8.07
2023-05-20T20:02:06.104Z,7.67
2023-05-20T20:04:33.293Z,7.70
2023-05-20T20:07:00.787Z,8.50
2023-05-20T20:09:27.743Z,8.53
2023-05-20T20:11:54.738Z,8.00
2023-05-20T20:14:21.696Z,8.30
2023-05-20T20:16:49.492Z,8.70
2023-05-20T20:19:18.774Z,8.23
2023-05-20T20:21:46.338Z,9.30
2023-05-20T20:24:13.200Z,9.03
2023-05-20T20:26:40.585Z,7.87
2023-05-20T20:29:08.164Z,8.47
2023-05-20T20:31:34.972Z,8.70
2023-05-20T20:34:01.790Z,8.53
2023-05-20T20:36:31.968Z,8.93
2023-05-20T20:38:59.548Z,8.47
2023-05-20T20:41:26.314Z,9.30
2023-05-20T20:43:53.186Z,9.13
2023-05-20T20:46:20.413Z,8.87
2023-05-20T20:48:47.288Z,8.47
2023-05-20T20:51:15.298Z,9.77
2023-05-20T20:53:42.626Z,9.20
2023-05-20T20:56:10.051Z,9.40
2023-05-20T20:58:37.793Z,9.73
2023-05-20T21:01:05.710Z,8.70
2023-05-20T21:03:40.278Z,9.60
2023-05-20T21:06:08.050Z,9.77
2023-05-20T21:08:35.490Z,10.20
2023-05-20T21:11:02.289Z,10.70
2023-05-20T21:13:30.759Z,9.70
2023-05-20T21:15:57.522Z,9.80
2023-05-20T21:18:24.523Z,10.97
2023-05-20T21:20:53.071Z,9.87
2023-05-20T21:23:20.874Z,10.97
2023-05-20T21:25:48.247Z,10.37
2023-05-20T21:28:15.908Z,9.97
2023-05-20T21:30:42.775Z,10.00
2023-05-20T21:33:09.735Z,11.57
2023-05-20T21:35:36.893Z,10.30
2023-05-20T21:38:03.841Z,11.23
2023-05-20T21:40:30.583Z,11.33
2023-05-20T21:42:57.305Z,11.20
2023-05-20T21:45:24.045Z,12.00
2023-05-20T21:47:50.994Z,11.93
2023-05-20T21:50:17.853Z,11.43
2023-05-20T21:52:44.619Z,13.07
2023-05-20T21:55:11.521Z,11.70
2023-05-20T21:57:38.342Z,13.43
2023-05-20T22:00:11.060Z,12.80
2023-05-20T22:02:38.133Z,12.30
2023-05-20T22:05:05.431Z,12.77
2023-05-20T22:07:33.141Z,13.40
2023-05-20T22:10:00.651Z,13.90
2023-05-20T22:12:27.683Z,14.93
2023-05-20T22:14:54.677Z,14.40
2023-05-20T22:17:21.837Z,13.97
2023-05-20T22:19:49.796Z,13.97
2023-05-20T22:22:16.680Z,13.30
2023-05-20T22:24:43.475Z,14.60
2023-05-20T22:27:10.295Z,14.60
2023-05-20T22:29:37.180Z,15.60
2023-05-20T22:32:04.234Z,16.13
2023-05-20T22:34:31.166Z,15.37
2023-05-20T22:36:58.147Z,14.77
2023-05-20T22:39:24.998Z,15.03
2023-05-20T22:41:51.804Z,14.17
2023-05-20T22:44:18.494Z,15.53
2023-05-20T22:46:45.306Z,14.47
2023-05-20T22:49:12.883Z,14.80
2023-05-20T22:51:39.716Z,14.37
2023-05-20T22:54:07.080Z,15.90
2023-05-20T22:56:34.255Z,14.90
2023-05-20T22:59:01.234Z,16.27
2023-05-20T23:01:28.079Z,16.07
2023-05-20T23:03:55.153Z,17.63
2023-05-20T23:06:22.524Z,17.70
2023-05-20T23:08:49.645Z,17.20
2023-05-20T23:11:16.638Z,16.40
2023-05-20T23:13:43.360Z,17.80
2023-05-20T23:16:10.453Z,17.43
2023-05-20T23:18:37.261Z,17.30
2023-05-20T23:21:04.305Z,18.03
2023-05-20T23:23:32.204Z,17.20
2023-05-20T23:25:59.799Z,17.37
2023-05-20T23:28:26.755Z,17.50
2023-05-20T23:30:54.455Z,18.53
2023-05-20T23:33:25.031Z,17.63
2023-05-20T23:35:52.916Z,18.20
2023-05-20T23:38:19.688Z,18.50
2023-05-20T23:40:46.470Z,17.37
2023-05-20T23:43:13.301Z,17.43
2023-05-20T23:45:40.066Z,18.73
2023-05-20T23:48:09.889Z,18.23
2023-05-20T23:50:36.676Z,17.87
2023-05-20T23:53:03.674Z,18.03
2023-05-20T23:55:31.798Z,19.10
2023-05-20T23:57:58.613Z,18.07
